sensor_id;sensor_type;location;lat;lon;timestamp;pressure;altitude;pressure_sealevel;temperature;humidity
5550;BME280;2798;42.716;23.256;2022-07-26T00:01:38;94556.41;;;23.20;68.47
5550;BME280;2798;42.716;23.256;2022-07-26T00:04:03;94560.88;;;23.27;68.29
5550;BME280;2798;42.716;23.256;2022-07-26T00:06:29;94533.00;;;23.19;67.37
5550;BME280;2798;42.716;23.256;2022-07-26T00:08:54;94548.66;;;23.41;67.26
5550;BME280;2798;42.716;23.256;2022-07-26T00:11:20;94544.28;;;23.55;67.57
5550;BME280;2798;42.716;23.256;2022-07-26T00:13:46;94543.03;;;23.51;66.90
5550;BME280;2798;42.716;23.256;2022-07-26T00:16:12;94549.53;;;23.55;67.01
5550;BME280;2798;42.716;23.256;2022-07-26T00:18:38;94549.31;;;23.56;66.77
5550;BME280;2798;42.716;23.256;2022-07-26T00:21:03;94541.03;;;23.53;67.25
5550;BME280;2798;42.716;23.256;2022-07-26T00:23:29;94524.97;;;23.34;67.25
5550;BME280;2798;42.716;23.256;2022-07-26T00:25:55;94527.47;;;23.42;66.85
5550;BME280;2798;42.716;23.256;2022-07-26T00:28:20;94541.22;;;23.51;66.74
5550;BME280;2798;42.716;23.256;2022-07-26T00:30:45;94536.06;;;23.36;67.22
5550;BME280;2798;42.716;23.256;2022-07-26T00:33:11;94540.00;;;23.47;67.85
5550;BME280;2798;42.716;23.256;2022-07-26T00:35:37;94533.31;;;23.44;66.81
5550;BME280;2798;42.716;23.256;2022-07-26T00:38:02;94534.75;;;23.47;67.25
5550;BME280;2798;42.716;23.256;2022-07-26T00:40:28;94508.78;;;23.24;68.53
5550;BME280;2798;42.716;23.256;2022-07-26T00:42:53;94531.78;;;23.15;68.46
5550;BME280;2798;42.716;23.256;2022-07-26T00:45:18;94521.84;;;23.10;68.38
5550;BME280;2798;42.716;23.256;2022-07-26T00:47:44;94523.28;;;23.13;68.37
5550;BME280;2798;42.716;23.256;2022-07-26T00:50:14;94528.16;;;23.23;69.38
5550;BME280;2798;42.716;23.256;2022-07-26T00:52:42;94514.53;;;23.05;68.40
5550;BME280;2798;42.716;23.256;2022-07-26T00:55:08;94523.84;;;23.08;69.13
5550;BME280;2798;42.716;23.256;2022-07-26T00:57:34;94530.13;;;23.07;69.17
5550;BME280;2798;42.716;23.256;2022-07-26T01:00:03;94538.94;;;22.92;69.25
5550;BME280;2798;42.716;23.256;2022-07-26T01:02:28;94534.22;;;22.88;69.35
5550;BME280;2798;42.716;23.256;2022-07-26T01:04:54;94522.28;;;22.78;69.84
5550;BME280;2798;42.716;23.256;2022-07-26T01:07:21;94523.53;;;22.82;69.28
5550;BME280;2798;42.716;23.256;2022-07-26T01:09:47;94533.28;;;22.95;69.12
5550;BME280;2798;42.716;23.256;2022-07-26T01:12:12;94534.91;;;22.96;69.37
5550;BME280;2798;42.716;23.256;2022-07-26T01:14:41;94531.72;;;23.08;69.60
5550;BME280;2798;42.716;23.256;2022-07-26T01:17:07;94534.78;;;23.12;69.09
5550;BME280;2798;42.716;23.256;2022-07-26T01:19:32;94529.72;;;23.10;68.88
5550;BME280;2798;42.716;23.256;2022-07-26T01:21:58;94529.75;;;23.17;69.32
5550;BME280;2798;42.716;23.256;2022-07-26T01:24:23;94527.09;;;23.10;68.36
5550;BME280;2798;42.716;23.256;2022-07-26T01:26:49;94510.69;;;23.01;68.88
5550;BME280;2798;42.716;23.256;2022-07-26T01:29:14;94501.59;;;22.97;69.27
5550;BME280;2798;42.716;23.256;2022-07-26T01:31:40;94521.44;;;23.06;68.50
5550;BME280;2798;42.716;23.256;2022-07-26T01:34:05;94525.63;;;23.01;69.05
5550;BME280;2798;42.716;23.256;2022-07-26T01:36:31;94521.50;;;22.84;68.97
5550;BME280;2798;42.716;23.256;2022-07-26T01:38:56;94520.38;;;22.94;69.45
5550;BME280;2798;42.716;23.256;2022-07-26T01:41:22;94519.31;;;22.88;69.60
5550;BME280;2798;42.716;23.256;2022-07-26T01:43:47;94517.47;;;22.82;69.88
5550;BME280;2798;42.716;23.256;2022-07-26T01:46:13;94521.88;;;22.81;69.35
5550;BME280;2798;42.716;23.256;2022-07-26T01:48:39;94529.19;;;22.86;69.32
5550;BME280;2798;42.716;23.256;2022-07-26T01:51:05;94491.19;;;22.75;70.01
5550;BME280;2798;42.716;23.256;2022-07-26T01:53:30;94508.19;;;22.79;69.54
5550;BME280;2798;42.716;23.256;2022-07-26T01:55:56;94530.53;;;22.75;69.73
5550;BME280;2798;42.716;23.256;2022-07-26T01:58:22;94523.91;;;22.79;69.44
5550;BME280;2798;42.716;23.256;2022-07-26T02:00:47;94530.56;;;22.82;69.63
5550;BME280;2798;42.716;23.256;2022-07-26T02:03:13;94525.19;;;22.90;68.91
5550;BME280;2798;42.716;23.256;2022-07-26T02:05:38;94531.19;;;22.84;68.61
5550;BME280;2798;42.716;23.256;2022-07-26T02:08:04;94524.63;;;22.66;68.75
5550;BME280;2798;42.716;23.256;2022-07-26T02:10:30;94533.72;;;22.70;68.94
5550;BME280;2798;42.716;23.256;2022-07-26T02:13:14;94535.00;;;22.53;69.24
5550;BME280;2798;42.716;23.256;2022-07-26T02:15:40;94542.47;;;22.56;69.97
5550;BME280;2798;42.716;23.256;2022-07-26T02:18:06;94538.25;;;22.55;69.40
5550;BME280;2798;42.716;23.256;2022-07-26T02:20:32;94540.38;;;22.44;70.18
5550;BME280;2798;42.716;23.256;2022-07-26T02:22:59;94539.53;;;22.37;70.06
5550;BME280;2798;42.716;23.256;2022-07-26T02:25:24;94537.28;;;22.34;70.42
5550;BME280;2798;42.716;23.256;2022-07-26T02:27:50;94539.63;;;22.51;69.74
5550;BME280;2798;42.716;23.256;2022-07-26T02:30:15;94539.34;;;22.39;69.80
5550;BME280;2798;42.716;23.256;2022-07-26T02:32:41;94532.63;;;22.29;70.06
5550;BME280;2798;42.716;23.256;2022-07-26T02:35:08;94535.53;;;22.41;69.98
5550;BME280;2798;42.716;23.256;2022-07-26T02:37:33;94513.63;;;22.27;69.71
5550;BME280;2798;42.716;23.256;2022-07-26T02:39:59;94539.28;;;22.32;69.59
5550;BME280;2798;42.716;23.256;2022-07-26T02:42:25;94539.91;;;22.34;69.84
5550;BME280;2798;42.716;23.256;2022-07-26T02:44:51;94537.53;;;22.39;69.82
5550;BME280;2798;42.716;23.256;2022-07-26T02:47:18;94539.97;;;22.19;70.18
5550;BME280;2798;42.716;23.256;2022-07-26T02:49:43;94526.34;;;22.02;70.41
5550;BME280;2798;42.716;23.256;2022-07-26T02:52:09;94548.34;;;22.07;70.64
5550;BME280;2798;42.716;23.256;2022-07-26T02:54:34;94546.41;;;22.16;70.39
5550;BME280;2798;42.716;23.256;2022-07-26T02:56:59;94538.97;;;22.20;70.78
5550;BME280;2798;42.716;23.256;2022-07-26T02:59:25;94546.47;;;22.23;70.41
5550;BME280;2798;42.716;23.256;2022-07-26T03:01:50;94544.41;;;22.18;70.50
5550;BME280;2798;42.716;23.256;2022-07-26T03:04:16;94546.41;;;22.16;71.01
5550;BME280;2798;42.716;23.256;2022-07-26T03:06:41;94551.34;;;22.04;70.76
5550;BME280;2798;42.716;23.256;2022-07-26T03:09:07;94549.41;;;22.13;70.59
5550;BME280;2798;42.716;23.256;2022-07-26T03:11:32;94558.25;;;22.34;69.74
5550;BME280;2798;42.716;23.256;2022-07-26T03:13:57;94548.94;;;22.31;69.68
5550;BME280;2798;42.716;23.256;2022-07-26T03:16:23;94554.34;;;22.23;70.01
5550;BME280;2798;42.716;23.256;2022-07-26T03:18:48;94551.97;;;22.06;71.29
5550;BME280;2798;42.716;23.256;2022-07-26T03:21:14;94543.78;;;21.94;70.81
5550;BME280;2798;42.716;23.256;2022-07-26T03:23:39;94555.16;;;22.02;71.34
5550;BME280;2798;42.716;23.256;2022-07-26T03:26:05;94561.78;;;22.19;71.33
5550;BME280;2798;42.716;23.256;2022-07-26T03:28:31;94560.19;;;22.25;70.95
5550;BME280;2798;42.716;23.256;2022-07-26T03:30:57;94566.31;;;22.32;70.80
5550;BME280;2798;42.716;23.256;2022-07-26T03:33:23;94560.63;;;22.29;71.01
5550;BME280;2798;42.716;23.256;2022-07-26T03:35:48;94556.97;;;22.23;71.54
5550;BME280;2798;42.716;23.256;2022-07-26T03:38:14;94552.63;;;22.37;71.36
5550;BME280;2798;42.716;23.256;2022-07-26T03:40:39;94563.69;;;22.32;70.70
5550;BME280;2798;42.716;23.256;2022-07-26T03:43:04;94561.88;;;22.33;70.48
5550;BME280;2798;42.716;23.256;2022-07-26T03:45:30;94560.06;;;22.33;70.26
5550;BME280;2798;42.716;23.256;2022-07-26T03:47:56;94557.00;;;22.30;70.38
5550;BME280;2798;42.716;23.256;2022-07-26T03:50:21;94560.94;;;22.41;69.77
5550;BME280;2798;42.716;23.256;2022-07-26T03:52:46;94560.78;;;22.49;69.05
5550;BME280;2798;42.716;23.256;2022-07-26T03:55:12;94557.00;;;22.52;69.14
5550;BME280;2798;42.716;23.256;2022-07-26T03:57:56;94551.34;;;22.55;68.76
5550;BME280;2798;42.716;23.256;2022-07-26T04:00:21;94552.72;;;22.51;68.78
5550;BME280;2798;42.716;23.256;2022-07-26T04:02:47;94557.56;;;22.47;69.27
5550;BME280;2798;42.716;23.256;2022-07-26T04:05:12;94562.66;;;22.55;69.39
5550;BME280;2798;42.716;23.256;2022-07-26T04:07:42;94550.28;;;22.49;69.92
5550;BME280;2798;42.716;23.256;2022-07-26T04:10:08;94552.25;;;22.40;69.98
5550;BME280;2798;42.716;23.256;2022-07-26T04:12:34;94558.72;;;22.44;70.05
5550;BME280;2798;42.716;23.256;2022-07-26T04:15:00;94557.66;;;22.60;70.03
5550;BME280;2798;42.716;23.256;2022-07-26T04:17:25;94555.16;;;22.74;69.45
5550;BME280;2798;42.716;23.256;2022-07-26T04:19:50;94548.94;;;22.82;68.91
5550;BME280;2798;42.716;23.256;2022-07-26T04:22:16;94556.66;;;22.90;67.97
5550;BME280;2798;42.716;23.256;2022-07-26T04:24:41;94532.91;;;22.70;68.66
5550;BME280;2798;42.716;23.256;2022-07-26T04:27:06;94554.56;;;22.79;68.97
5550;BME280;2798;42.716;23.256;2022-07-26T04:29:32;94549.63;;;22.91;69.21
5550;BME280;2798;42.716;23.256;2022-07-26T04:31:57;94541.31;;;22.87;68.74
5550;BME280;2798;42.716;23.256;2022-07-26T04:34:23;94536.22;;;22.79;69.12
5550;BME280;2798;42.716;23.256;2022-07-26T04:36:48;94542.91;;;22.88;68.36
5550;BME280;2798;42.716;23.256;2022-07-26T04:39:14;94544.72;;;22.81;68.44
5550;BME280;2798;42.716;23.256;2022-07-26T04:41:39;94550.16;;;22.86;68.70
5550;BME280;2798;42.716;23.256;2022-07-26T04:44:04;94543.69;;;22.82;68.57
5550;BME280;2798;42.716;23.256;2022-07-26T04:46:30;94540.38;;;22.66;69.47
5550;BME280;2798;42.716;23.256;2022-07-26T04:48:55;94527.66;;;22.41;70.09
5550;BME280;2798;42.716;23.256;2022-07-26T04:51:21;94522.53;;;22.33;70.25
5550;BME280;2798;42.716;23.256;2022-07-26T04:53:46;94544.84;;;22.51;70.59
5550;BME280;2798;42.716;23.256;2022-07-26T04:56:11;94547.91;;;22.54;70.35
5550;BME280;2798;42.716;23.256;2022-07-26T04:58:37;94516.00;;;22.51;69.88
5550;BME280;2798;42.716;23.256;2022-07-26T05:01:02;94539.84;;;22.56;70.15
5550;BME280;2798;42.716;23.256;2022-07-26T05:03:27;94551.16;;;22.56;70.81
5550;BME280;2798;42.716;23.256;2022-07-26T05:05:53;94548.84;;;22.68;70.60
5550;BME280;2798;42.716;23.256;2022-07-26T05:08:19;94548.84;;;22.68;69.87
5550;BME280;2798;42.716;23.256;2022-07-26T05:10:44;94545.63;;;22.44;71.33
5550;BME280;2798;42.716;23.256;2022-07-26T05:13:10;94541.44;;;22.50;71.18
5550;BME280;2798;42.716;23.256;2022-07-26T05:15:35;94536.25;;;22.57;70.51
5550;BME280;2798;42.716;23.256;2022-07-26T05:18:06;94541.06;;;22.82;69.82
5550;BME280;2798;42.716;23.256;2022-07-26T05:20:32;94531.69;;;22.66;70.32
5550;BME280;2798;42.716;23.256;2022-07-26T05:22:58;94543.19;;;22.65;71.08
5550;BME280;2798;42.716;23.256;2022-07-26T05:25:24;94532.63;;;22.58;70.81
5550;BME280;2798;42.716;23.256;2022-07-26T05:27:50;94540.28;;;22.88;69.72
5550;BME280;2798;42.716;23.256;2022-07-26T05:30:15;94541.31;;;22.87;69.63
5550;BME280;2798;42.716;23.256;2022-07-26T05:32:41;94537.13;;;23.00;69.30
5550;BME280;2798;42.716;23.256;2022-07-26T05:35:06;94543.97;;;22.94;70.09
5550;BME280;2798;42.716;23.256;2022-07-26T05:37:33;94544.72;;;22.88;69.62
5550;BME280;2798;42.716;23.256;2022-07-26T05:39:58;94545.78;;;22.93;69.27
5550;BME280;2798;42.716;23.256;2022-07-26T05:42:24;94537.19;;;23.06;69.45
5550;BME280;2798;42.716;23.256;2022-07-26T05:44:50;94527.81;;;23.32;69.77
5550;BME280;2798;42.716;23.256;2022-07-26T05:47:15;94531.56;;;23.23;69.63
5550;BME280;2798;42.716;23.256;2022-07-26T05:49:41;94528.59;;;23.33;69.31
5550;BME280;2798;42.716;23.256;2022-07-26T05:52:07;94535.94;;;23.44;69.28
5550;BME280;2798;42.716;23.256;2022-07-26T05:54:33;94526.59;;;23.35;69.00
5550;BME280;2798;42.716;23.256;2022-07-26T05:56:58;94516.63;;;23.17;69.58
5550;BME280;2798;42.716;23.256;2022-07-26T05:59:24;94527.03;;;23.39;68.95
5550;BME280;2798;42.716;23.256;2022-07-26T06:01:49;94530.09;;;23.42;68.57
5550;BME280;2798;42.716;23.256;2022-07-26T06:04:14;94527.50;;;23.56;68.68
5550;BME280;2798;42.716;23.256;2022-07-26T06:06:40;94522.09;;;23.78;67.72
5550;BME280;2798;42.716;23.256;2022-07-26T06:09:05;94528.38;;;23.83;67.68
5550;BME280;2798;42.716;23.256;2022-07-26T06:11:31;94515.22;;;23.77;67.75
5550;BME280;2798;42.716;23.256;2022-07-26T06:13:56;94516.47;;;23.81;66.96
5550;BME280;2798;42.716;23.256;2022-07-26T06:16:22;94517.50;;;24.00;66.68
5550;BME280;2798;42.716;23.256;2022-07-26T06:18:47;94511.63;;;24.05;66.79
5550;BME280;2798;42.716;23.256;2022-07-26T06:21:12;94513.88;;;24.15;66.11
5550;BME280;2798;42.716;23.256;2022-07-26T06:23:38;94511.84;;;24.03;67.03
5550;BME280;2798;42.716;23.256;2022-07-26T06:26:04;94507.16;;;24.05;66.34
5550;BME280;2798;42.716;23.256;2022-07-26T06:28:30;94505.75;;;24.10;66.91
5550;BME280;2798;42.716;23.256;2022-07-26T06:30:55;94507.63;;;24.23;66.73
5550;BME280;2798;42.716;23.256;2022-07-26T06:33:21;94505.59;;;24.38;65.56
5550;BME280;2798;42.716;23.256;2022-07-26T06:35:46;94510.03;;;24.58;65.15
5550;BME280;2798;42.716;23.256;2022-07-26T06:38:11;94508.19;;;24.59;64.69
5550;BME280;2798;42.716;23.256;2022-07-26T06:40:37;94509.19;;;24.64;62.88
5550;BME280;2798;42.716;23.256;2022-07-26T06:43:02;94489.13;;;24.70;64.08
5550;BME280;2798;42.716;23.256;2022-07-26T06:45:28;94507.75;;;24.89;63.75
5550;BME280;2798;42.716;23.256;2022-07-26T06:47:55;94503.50;;;24.94;61.95
5550;BME280;2798;42.716;23.256;2022-07-26T06:50:21;94492.94;;;25.01;63.15
5550;BME280;2798;42.716;23.256;2022-07-26T06:52:46;94499.91;;;25.28;62.03
5550;BME280;2798;42.716;23.256;2022-07-26T06:55:12;94500.63;;;25.03;63.14
5550;BME280;2798;42.716;23.256;2022-07-26T06:57:38;94499.59;;;25.11;63.16
5550;BME280;2798;42.716;23.256;2022-07-26T07:00:05;94497.91;;;25.23;62.90
5550;BME280;2798;42.716;23.256;2022-07-26T07:02:31;94505.16;;;25.35;60.60
5550;BME280;2798;42.716;23.256;2022-07-26T07:04:56;94507.09;;;25.53;61.88
5550;BME280;2798;42.716;23.256;2022-07-26T07:07:22;94490.47;;;25.52;61.00
5550;BME280;2798;42.716;23.256;2022-07-26T07:09:47;94504.13;;;25.82;60.43
5550;BME280;2798;42.716;23.256;2022-07-26T07:12:13;94494.22;;;25.77;60.07
5550;BME280;2798;42.716;23.256;2022-07-26T07:14:39;94485.78;;;25.68;60.65
5550;BME280;2798;42.716;23.256;2022-07-26T07:17:05;94511.53;;;25.98;59.74
5550;BME280;2798;42.716;23.256;2022-07-26T07:19:34;94502.78;;;26.04;59.44
5550;BME280;2798;42.716;23.256;2022-07-26T07:21:59;94506.78;;;26.07;59.29
5550;BME280;2798;42.716;23.256;2022-07-26T07:24:25;94498.66;;;26.09;59.53
5550;BME280;2798;42.716;23.256;2022-07-26T07:26:50;94506.38;;;26.10;59.31
5550;BME280;2798;42.716;23.256;2022-07-26T07:29:15;94506.09;;;26.19;59.13
5550;BME280;2798;42.716;23.256;2022-07-26T07:31:47;94491.56;;;26.09;57.98
5550;BME280;2798;42.716;23.256;2022-07-26T07:34:14;94508.16;;;26.16;56.29
5550;BME280;2798;42.716;23.256;2022-07-26T07:36:40;94499.72;;;26.33;57.93
5550;BME280;2798;42.716;23.256;2022-07-26T07:39:05;94500.56;;;26.52;57.79
5550;BME280;2798;42.716;23.256;2022-07-26T07:41:31;94504.75;;;26.60;54.24
5550;BME280;2798;42.716;23.256;2022-07-26T07:43:59;94496.19;;;26.65;55.05
5550;BME280;2798;42.716;23.256;2022-07-26T07:46:24;94481.38;;;26.83;55.88
5550;BME280;2798;42.716;23.256;2022-07-26T07:48:50;94489.78;;;26.98;55.79
5550;BME280;2798;42.716;23.256;2022-07-26T07:51:15;94492.38;;;27.05;55.79
5550;BME280;2798;42.716;23.256;2022-07-26T07:53:40;94471.28;;;26.98;55.60
5550;BME280;2798;42.716;23.256;2022-07-26T07:56:06;94489.09;;;27.22;55.15
5550;BME280;2798;42.716;23.256;2022-07-26T07:58:32;94473.63;;;27.25;54.54
5550;BME280;2798;42.716;23.256;2022-07-26T08:00:57;94481.16;;;27.40;54.75
5550;BME280;2798;42.716;23.256;2022-07-26T08:03:22;94481.06;;;27.47;53.61
5550;BME280;2798;42.716;23.256;2022-07-26T08:05:48;94483.16;;;27.57;53.10
5550;BME280;2798;42.716;23.256;2022-07-26T08:08:13;94475.25;;;27.57;52.60
5550;BME280;2798;42.716;23.256;2022-07-26T08:10:40;94464.53;;;27.52;52.30
5550;BME280;2798;42.716;23.256;2022-07-26T08:13:06;94481.31;;;27.76;53.57
5550;BME280;2798;42.716;23.256;2022-07-26T08:15:33;94478.47;;;27.90;53.04
5550;BME280;2798;42.716;23.256;2022-07-26T08:17:58;94471.59;;;28.01;52.46
5550;BME280;2798;42.716;23.256;2022-07-26T08:20:24;94459.50;;;28.05;52.67
5550;BME280;2798;42.716;23.256;2022-07-26T08:22:49;94469.31;;;28.17;51.26
5550;BME280;2798;42.716;23.256;2022-07-26T08:25:15;94466.91;;;28.27;52.52
5550;BME280;2798;42.716;23.256;2022-07-26T08:27:40;94464.63;;;28.31;51.45
5550;BME280;2798;42.716;23.256;2022-07-26T08:30:06;94462.69;;;28.50;51.32
5550;BME280;2798;42.716;23.256;2022-07-26T08:32:32;94457.63;;;28.48;51.44
5550;BME280;2798;42.716;23.256;2022-07-26T08:34:57;94455.66;;;28.44;51.71
5550;BME280;2798;42.716;23.256;2022-07-26T08:37:23;94456.22;;;28.46;50.14
5550;BME280;2798;42.716;23.256;2022-07-26T08:39:48;94451.50;;;28.48;51.68
5550;BME280;2798;42.716;23.256;2022-07-26T08:42:16;94442.44;;;28.32;52.20
5550;BME280;2798;42.716;23.256;2022-07-26T08:44:45;94446.91;;;28.55;51.55
5550;BME280;2798;42.716;23.256;2022-07-26T08:47:17;94445.19;;;28.61;50.65
5550;BME280;2798;42.716;23.256;2022-07-26T08:49:43;94447.47;;;28.57;51.08
5550;BME280;2798;42.716;23.256;2022-07-26T08:52:10;94444.94;;;28.50;51.31
5550;BME280;2798;42.716;23.256;2022-07-26T08:54:36;94449.44;;;28.50;50.72
5550;BME280;2798;42.716;23.256;2022-07-26T08:57:06;94447.81;;;28.61;49.38
5550;BME280;2798;42.716;23.256;2022-07-26T08:59:31;94443.69;;;28.53;48.62
5550;BME280;2798;42.716;23.256;2022-07-26T09:02:00;94440.47;;;28.63;48.27
5550;BME280;2798;42.716;23.256;2022-07-26T09:04:32;94449.41;;;28.74;46.87
5550;BME280;2798;42.716;23.256;2022-07-26T09:09:28;94441.81;;;28.66;46.58
5550;BME280;2798;42.716;23.256;2022-07-26T09:11:55;94446.72;;;28.86;46.88
5550;BME280;2798;42.716;23.256;2022-07-26T09:14:20;94440.75;;;29.03;45.91
5550;BME280;2798;42.716;23.256;2022-07-26T09:16:56;94416.47;;;28.82;45.37
5550;BME280;2798;42.716;23.256;2022-07-26T09:19:22;94441.88;;;29.07;43.68
5550;BME280;2798;42.716;23.256;2022-07-26T09:21:49;94452.03;;;29.10;43.49
5550;BME280;2798;42.716;23.256;2022-07-26T09:24:32;94430.19;;;29.20;44.24
5550;BME280;2798;42.716;23.256;2022-07-26T09:26:59;94449.06;;;29.35;44.30
5550;BME280;2798;42.716;23.256;2022-07-26T09:29:26;94431.25;;;29.48;43.33
5550;BME280;2798;42.716;23.256;2022-07-26T09:32:08;94433.63;;;29.61;42.97
5550;BME280;2798;42.716;23.256;2022-07-26T09:34:33;94415.06;;;29.79;42.46
5550;BME280;2798;42.716;23.256;2022-07-26T09:36:59;94431.22;;;29.77;42.48
5550;BME280;2798;42.716;23.256;2022-07-26T09:39:24;94426.97;;;29.93;42.77
5550;BME280;2798;42.716;23.256;2022-07-26T09:41:49;94426.47;;;30.14;41.65
5550;BME280;2798;42.716;23.256;2022-07-26T09:44:21;94415.31;;;30.29;40.25
5550;BME280;2798;42.716;23.256;2022-07-26T09:46:51;94425.53;;;30.37;38.95
5550;BME280;2798;42.716;23.256;2022-07-26T09:49:19;94417.69;;;30.47;39.38
5550;BME280;2798;42.716;23.256;2022-07-26T09:51:46;94421.56;;;30.79;39.82
5550;BME280;2798;42.716;23.256;2022-07-26T09:56:53;94419.22;;;31.05;38.47
5550;BME280;2798;42.716;23.256;2022-07-26T09:59:20;94407.91;;;31.15;37.14
5550;BME280;2798;42.716;23.256;2022-07-26T10:01:49;94407.44;;;31.24;37.43
5550;BME280;2798;42.716;23.256;2022-07-26T10:04:15;94413.63;;;31.29;37.54
5550;BME280;2798;42.716;23.256;2022-07-26T10:06:41;94417.56;;;31.49;36.00
5550;BME280;2798;42.716;23.256;2022-07-26T10:09:07;94393.47;;;31.61;35.47
5550;BME280;2798;42.716;23.256;2022-07-26T10:12:02;94412.66;;;31.96;34.31
5550;BME280;2798;42.716;23.256;2022-07-26T10:14:47;94403.16;;;32.05;34.91
5550;BME280;2798;42.716;23.256;2022-07-26T10:22:57;94396.19;;;32.42;34.71
5550;BME280;2798;42.716;23.256;2022-07-26T10:25:45;94400.47;;;32.49;34.07
5550;BME280;2798;42.716;23.256;2022-07-26T10:28:22;94403.69;;;32.51;33.73
5550;BME280;2798;42.716;23.256;2022-07-26T10:30:49;94391.53;;;32.65;33.29
5550;BME280;2798;42.716;23.256;2022-07-26T10:33:15;94394.50;;;32.79;32.72
5550;BME280;2798;42.716;23.256;2022-07-26T10:35:42;94394.28;;;32.86;32.82
5550;BME280;2798;42.716;23.256;2022-07-26T10:38:13;94390.31;;;32.99;32.89
5550;BME280;2798;42.716;23.256;2022-07-26T10:40:56;94387.38;;;32.96;32.86
5550;BME280;2798;42.716;23.256;2022-07-26T10:43:22;94385.47;;;32.80;33.20
5550;BME280;2798;42.716;23.256;2022-07-26T10:45:47;94387.66;;;32.40;33.02
5550;BME280;2798;42.716;23.256;2022-07-26T10:48:20;94351.13;;;31.92;32.69
5550;BME280;2798;42.716;23.256;2022-07-26T10:50:51;94373.66;;;31.79;33.47
5550;BME280;2798;42.716;23.256;2022-07-26T10:58:11;94359.94;;;31.55;34.32
5550;BME280;2798;42.716;23.256;2022-07-26T11:00:36;94355.38;;;31.50;33.96
5550;BME280;2798;42.716;23.256;2022-07-26T11:03:02;94360.50;;;31.62;33.93
5550;BME280;2798;42.716;23.256;2022-07-26T11:05:30;94353.28;;;31.57;33.95
5550;BME280;2798;42.716;23.256;2022-07-26T11:08:05;94352.22;;;31.58;33.94
5550;BME280;2798;42.716;23.256;2022-07-26T11:13:20;94338.25;;;31.41;33.93
5550;BME280;2798;42.716;23.256;2022-07-26T11:15:58;94327.34;;;31.75;33.25
5550;BME280;2798;42.716;23.256;2022-07-26T11:18:26;94336.78;;;31.93;33.38
5550;BME280;2798;42.716;23.256;2022-07-26T11:20:56;94322.75;;;31.98;33.57
5550;BME280;2798;42.716;23.256;2022-07-26T11:28:26;94314.22;;;31.96;32.28
5550;BME280;2798;42.716;23.256;2022-07-26T11:30:56;94297.53;;;31.73;33.33
5550;BME280;2798;42.716;23.256;2022-07-26T11:36:01;94307.22;;;32.33;31.20
5550;BME280;2798;42.716;23.256;2022-07-26T11:41:10;94303.94;;;32.85;30.72
5550;BME280;2798;42.716;23.256;2022-07-26T11:43:39;94309.84;;;32.92;30.03
5550;BME280;2798;42.716;23.256;2022-07-26T11:46:05;94309.63;;;33.09;29.78
5550;BME280;2798;42.716;23.256;2022-07-26T11:48:30;94303.25;;;33.26;29.33
5550;BME280;2798;42.716;23.256;2022-07-26T11:51:10;94299.50;;;33.42;29.28
5550;BME280;2798;42.716;23.256;2022-07-26T11:53:37;94287.75;;;33.49;29.16
5550;BME280;2798;42.716;23.256;2022-07-26T11:56:15;94303.75;;;33.75;27.76
5550;BME280;2798;42.716;23.256;2022-07-26T11:58:43;94301.06;;;33.90;27.35
5550;BME280;2798;42.716;23.256;2022-07-26T12:01:09;94297.34;;;33.97;27.58
5550;BME280;2798;42.716;23.256;2022-07-26T12:03:40;94295.97;;;34.10;28.71
5550;BME280;2798;42.716;23.256;2022-07-26T12:06:12;94289.53;;;34.21;27.63
5550;BME280;2798;42.716;23.256;2022-07-26T12:08:51;94289.25;;;34.23;27.09
5550;BME280;2798;42.716;23.256;2022-07-26T12:11:18;94287.13;;;34.20;27.44
5550;BME280;2798;42.716;23.256;2022-07-26T12:14:00;94290.31;;;34.27;26.62
5550;BME280;2798;42.716;23.256;2022-07-26T12:18:58;94280.31;;;34.53;25.58
5550;BME280;2798;42.716;23.256;2022-07-26T12:21:40;94273.28;;;34.68;25.63
5550;BME280;2798;42.716;23.256;2022-07-26T12:24:06;94272.22;;;34.74;25.48
5550;BME280;2798;42.716;23.256;2022-07-26T12:26:32;94276.72;;;34.84;25.21
5550;BME280;2798;42.716;23.256;2022-07-26T12:28:58;94276.22;;;34.82;25.84
5550;BME280;2798;42.716;23.256;2022-07-26T12:31:45;94276.91;;;34.98;24.74
5550;BME280;2798;42.716;23.256;2022-07-26T12:34:11;94280.06;;;35.00;24.76
5550;BME280;2798;42.716;23.256;2022-07-26T12:36:36;94277.88;;;35.13;23.78
5550;BME280;2798;42.716;23.256;2022-07-26T12:39:02;94268.22;;;35.12;23.49
5550;BME280;2798;42.716;23.256;2022-07-26T12:41:37;94268.66;;;35.30;22.89
5550;BME280;2798;42.716;23.256;2022-07-26T12:44:06;94253.75;;;35.23;23.21
5550;BME280;2798;42.716;23.256;2022-07-26T12:46:35;94266.50;;;35.32;23.65
5550;BME280;2798;42.716;23.256;2022-07-26T12:49:01;94270.28;;;35.31;23.90
5550;BME280;2798;42.716;23.256;2022-07-26T12:51:26;94268.00;;;35.48;23.63
5550;BME280;2798;42.716;23.256;2022-07-26T12:53:52;94275.38;;;35.57;22.82
5550;BME280;2798;42.716;23.256;2022-07-26T12:56:17;94272.03;;;35.75;22.53
5550;BME280;2798;42.716;23.256;2022-07-26T12:58:43;94266.16;;;35.73;22.96
5550;BME280;2798;42.716;23.256;2022-07-26T13:01:10;94256.16;;;35.55;22.76
5550;BME280;2798;42.716;23.256;2022-07-26T13:03:35;94258.97;;;35.98;22.32
5550;BME280;2798;42.716;23.256;2022-07-26T13:06:01;94263.56;;;35.93;22.16
5550;BME280;2798;42.716;23.256;2022-07-26T13:08:28;94265.94;;;35.94;22.18
5550;BME280;2798;42.716;23.256;2022-07-26T13:10:53;94254.72;;;35.92;22.27
5550;BME280;2798;42.716;23.256;2022-07-26T13:13:19;94257.47;;;35.57;22.67
5550;BME280;2798;42.716;23.256;2022-07-26T13:15:44;94251.13;;;35.48;22.58
5550;BME280;2798;42.716;23.256;2022-07-26T13:18:14;94253.19;;;35.56;22.28
5550;BME280;2798;42.716;23.256;2022-07-26T13:20:40;94243.47;;;35.66;22.64
5550;BME280;2798;42.716;23.256;2022-07-26T13:23:06;94243.91;;;35.78;22.74
5550;BME280;2798;42.716;23.256;2022-07-26T13:25:36;94249.50;;;35.82;22.35
5550;BME280;2798;42.716;23.256;2022-07-26T13:28:01;94252.06;;;35.62;22.43
5550;BME280;2798;42.716;23.256;2022-07-26T13:30:27;94243.34;;;35.51;22.83
5550;BME280;2798;42.716;23.256;2022-07-26T13:32:52;94241.88;;;35.65;22.83
5550;BME280;2798;42.716;23.256;2022-07-26T13:35:17;94243.75;;;35.64;22.25
5550;BME280;2798;42.716;23.256;2022-07-26T13:40:27;94252.59;;;35.65;23.42
5550;BME280;2798;42.716;23.256;2022-07-26T13:42:52;94244.56;;;35.65;23.28